Pagrindinis puslapis
METAR-TAF:

METAR-TAF

Oro uostai :

Nuakšotas, Mauritanija

platuma: 18-18-36N, ilguma: 015-58-11W, Aukštis: 3 m

Dabartinis oras

Ataskaita buvo paskelbta 32 minutes, ne 21:00 UTC
Vėjas 18 kt iš Šiaurės/Šiaurės Vakarų
Temperatūra 21°C
Drėgmė 83%
Slėgis 1010 hPa
Matomumas: 8000 m

METAR: GQNO 302100Z 33018KT 8000 NSC 21/18 Q1010 NOSIG

Laikas: 21:32 (21:32 UTC)

Prognozė

Ataskaita buvo paskelbta 4 valandos ir 32 minutes, ne 17:00 UTC
Prognozė galioja nuo 30 metu 18 UTC su 31 metu 24 UTC
Vėjas 18 kt iš Šiaurės/Šiaurės Vakarų
Matomumas: 2500 m
Smėlio pustymas
Tapsmas
nuo 30 metu 18 UTC su 30 metu 21 UTC
Matomumas: 6000 m

TAF: GQNO 301700Z 3018/3124 34018KT 2500 BLSA NSC BECMG 3018/3021 6000 NSW

Orai ataskaitas ir orų prognozės (METAR, TAF).

turimą stotys yra geltonos ir raudonos taškus žemėlapyje.

Perkelti pele per norėdami pamatyti stoties vardą.

Tada spustelėkite, norėdami matyti oro stebėjimo ir prognozės.

Norėdami pakeisti žemėlapį: spustelėkite ant žalios mygtukų su juodo kryžiaus žemyn,; žalią mygtuką su brūkšneliu, jei norite nutolinti; arba žalių rodyklių gretimoms žemėlapius.


METAR-TAF: